createdAt,value
2024-02-29T00:00:37.630Z,36.70
2024-02-29T00:03:05.758Z,29.65
2024-02-29T00:05:33.902Z,31.38
2024-02-29T00:08:02.857Z,31.98
2024-02-29T00:10:31.057Z,30.77
2024-02-29T00:13:00.931Z,26.65
2024-02-29T00:15:30.518Z,26.45
2024-02-29T00:17:58.953Z,30.25
2024-02-29T00:20:26.973Z,26.92
2024-02-29T00:22:55.171Z,26.77
2024-02-29T00:25:23.284Z,29.13
2024-02-29T00:27:51.274Z,28.20
2024-02-29T00:30:20.693Z,32.25
2024-02-29T00:32:48.812Z,33.00
2024-02-29T00:35:17.446Z,31.13
2024-02-29T00:37:46.125Z,27.42
2024-02-29T00:40:14.446Z,32.80
2024-02-29T00:42:42.463Z,32.53
2024-02-29T00:45:10.842Z,33.90
2024-02-29T00:47:40.292Z,41.42
2024-02-29T00:50:09.385Z,36.50
2024-02-29T00:52:37.423Z,35.72
2024-02-29T00:55:08.262Z,36.95
2024-02-29T00:57:36.404Z,37.28
2024-02-29T01:00:04.201Z,39.13
2024-02-29T01:02:32.108Z,42.05
2024-02-29T01:05:01.578Z,41.38
2024-02-29T01:07:29.617Z,39.75
2024-02-29T01:09:59.371Z,36.90
2024-02-29T01:12:27.329Z,37.67
2024-02-29T01:14:55.333Z,38.55
2024-02-29T01:17:24.149Z,37.75
2024-02-29T01:19:52.148Z,34.58
2024-02-29T01:22:21.487Z,38.25
2024-02-29T01:24:49.509Z,37.45
2024-02-29T01:27:17.450Z,35.05
2024-02-29T01:29:45.695Z,34.33
2024-02-29T01:32:19.083Z,38.22
2024-02-29T01:34:54.113Z,38.80
2024-02-29T01:37:23.587Z,34.72
2024-02-29T01:39:51.791Z,36.70
2024-02-29T01:42:20.018Z,39.10
2024-02-29T01:44:54.555Z,34.35
2024-02-29T01:47:22.717Z,34.55
2024-02-29T01:49:51.258Z,35.65
2024-02-29T01:52:20.650Z,39.60
2024-02-29T01:54:50.097Z,40.88
2024-02-29T01:57:18.357Z,46.78
2024-02-29T01:59:47.787Z,37.88
2024-02-29T02:02:15.783Z,37.80
2024-02-29T02:04:43.774Z,42.65
2024-02-29T02:07:12.066Z,41.78
2024-02-29T02:09:42.493Z,35.08
2024-02-29T02:12:12.677Z,35.83
2024-02-29T02:14:41.021Z,37.05
2024-02-29T02:17:10.297Z,37.83
2024-02-29T02:19:40.656Z,35.60
2024-02-29T02:22:11.702Z,39.75
2024-02-29T02:24:39.797Z,41.35
2024-02-29T02:27:08.197Z,39.67
2024-02-29T02:29:36.205Z,40.85
2024-02-29T02:32:04.564Z,47.30
2024-02-29T02:34:32.628Z,46.70
2024-02-29T02:37:00.766Z,41.80
2024-02-29T02:39:30.262Z,44.22
2024-02-29T02:41:58.881Z,46.42
2024-02-29T02:44:26.859Z,41.20
2024-02-29T02:46:54.912Z,38.70
2024-02-29T02:49:22.893Z,41.08
2024-02-29T02:51:50.931Z,45.70
2024-02-29T02:54:19.318Z,43.10
2024-02-29T02:56:48.647Z,40.17
2024-02-29T02:59:16.708Z,37.08
2024-02-29T03:01:44.693Z,43.95
2024-02-29T03:04:13.316Z,42.35
2024-02-29T03:06:41.502Z,42.88
2024-02-29T03:09:10.120Z,51.13
2024-02-29T03:11:38.414Z,46.95
2024-02-29T03:14:07.989Z,48.08
2024-02-29T03:16:36.616Z,43.55
2024-02-29T03:19:06.105Z,47.08
2024-02-29T03:21:34.271Z,48.03
2024-02-29T03:24:02.397Z,42.65
2024-02-29T03:26:30.569Z,43.45
2024-02-29T03:28:58.528Z,41.55
2024-02-29T03:31:27.958Z,42.53
2024-02-29T03:33:56.013Z,39.97
2024-02-29T03:36:24.020Z,41.42
2024-02-29T03:38:51.972Z,42.72
2024-02-29T03:41:19.971Z,42.20
2024-02-29T03:43:47.974Z,46.03
2024-02-29T03:46:15.101Z,43.58
2024-02-29T03:48:44.552Z,39.33
2024-02-29T03:51:12.487Z,44.05
2024-02-29T03:53:40.734Z,45.45
2024-02-29T03:56:09.029Z,42.58
2024-02-29T03:58:37.290Z,46.55
2024-02-29T04:01:11.849Z,47.40
2024-02-29T04:03:40.575Z,41.90
2024-02-29T04:06:10.480Z,48.42
2024-02-29T04:08:38.825Z,45.03
2024-02-29T04:11:06.849Z,50.58
2024-02-29T04:13:34.881Z,46.33
2024-02-29T04:16:03.791Z,47.22
2024-02-29T04:18:32.045Z,49.20
2024-02-29T04:21:00.006Z,49.72
2024-02-29T04:23:29.404Z,50.38
2024-02-29T04:25:57.581Z,45.00
2024-02-29T04:28:25.635Z,42.22
2024-02-29T04:30:53.756Z,43.70
2024-02-29T04:33:21.896Z,42.75
2024-02-29T04:35:50.131Z,45.63
2024-02-29T04:38:19.343Z,47.10
2024-02-29T04:40:48.878Z,49.50
2024-02-29T04:43:17.865Z,52.92
2024-02-29T04:45:46.019Z,47.05
2024-02-29T04:48:14.128Z,51.15
2024-02-29T04:50:42.173Z,53.88
2024-02-29T04:53:10.066Z,53.53
2024-02-29T04:55:38.048Z,47.88
2024-02-29T04:58:07.536Z,53.22
2024-02-29T05:00:35.764Z,48.53
2024-02-29T05:03:04.074Z,49.42
2024-02-29T05:05:32.097Z,47.03
2024-02-29T05:08:01.726Z,43.50
2024-02-29T05:10:29.943Z,47.33
2024-02-29T05:12:58.057Z,46.28
2024-02-29T05:15:27.439Z,41.58
2024-02-29T05:17:55.780Z,45.85
2024-02-29T05:20:24.142Z,45.75
2024-02-29T05:22:55.028Z,46.65
2024-02-29T05:25:23.451Z,43.13
2024-02-29T05:27:51.555Z,44.85
2024-02-29T05:30:19.687Z,43.63
2024-02-29T05:32:49.875Z,46.83
2024-02-29T05:35:18.088Z,46.55
2024-02-29T05:37:46.113Z,46.53
2024-02-29T05:40:15.315Z,44.42
2024-02-29T05:42:43.718Z,46.13
2024-02-29T05:45:12.590Z,44.78
2024-02-29T05:47:40.774Z,47.97
2024-02-29T05:50:10.736Z,43.97
2024-02-29T05:52:38.916Z,40.90
2024-02-29T05:55:07.777Z,45.60
2024-02-29T05:57:36.251Z,42.83
2024-02-29T06:00:05.371Z,46.05
2024-02-29T06:05:07.266Z,38.88
2024-02-29T06:07:37.922Z,46.60
2024-02-29T06:10:10.265Z,45.80
2024-02-29T06:12:38.448Z,44.95
2024-02-29T06:15:11.094Z,44.35
2024-02-29T06:17:42.528Z,51.25
2024-02-29T06:20:13.279Z,45.92
2024-02-29T06:22:43.185Z,44.75
2024-02-29T06:25:11.748Z,43.22
2024-02-29T06:27:40.661Z,50.50
2024-02-29T06:30:10.920Z,50.17
2024-02-29T06:32:41.778Z,42.65
2024-02-29T06:35:11.194Z,44.92
2024-02-29T06:37:43.867Z,38.75
2024-02-29T06:40:13.618Z,39.13
2024-02-29T06:42:42.173Z,42.53
2024-02-29T06:45:11.778Z,48.45
2024-02-29T06:47:41.386Z,40.85
2024-02-29T06:50:10.150Z,48.95
2024-02-29T06:52:38.908Z,45.42
2024-02-29T06:55:09.765Z,42.17
2024-02-29T06:57:38.132Z,50.38
2024-02-29T07:00:07.400Z,49.55
2024-02-29T07:02:35.710Z,49.45
2024-02-29T07:05:04.010Z,49.17
2024-02-29T07:07:31.978Z,45.28
2024-02-29T07:10:00.012Z,52.33
2024-02-29T07:12:29.387Z,46.15
2024-02-29T07:14:57.975Z,43.15
2024-02-29T07:17:25.998Z,42.05
2024-02-29T07:19:54.036Z,48.47
2024-02-29T07:22:22.159Z,40.20
2024-02-29T07:24:50.256Z,49.47
2024-02-29T07:27:18.276Z,46.05
2024-02-29T07:29:47.961Z,43.58
2024-02-29T07:32:16.280Z,41.05
2024-02-29T07:34:44.242Z,51.42
2024-02-29T07:37:12.238Z,40.85
2024-02-29T07:39:40.219Z,42.08
2024-02-29T07:42:08.269Z,39.63
2024-02-29T07:44:36.436Z,47.47
2024-02-29T07:47:06.270Z,40.58
2024-02-29T07:49:34.256Z,42.78
2024-02-29T07:52:02.927Z,46.25
2024-02-29T07:54:30.949Z,42.63
2024-02-29T07:56:59.048Z,40.67
2024-02-29T07:59:27.290Z,44.88
2024-02-29T08:01:55.453Z,48.80
2024-02-29T08:04:24.866Z,42.50
2024-02-29T08:06:53.104Z,43.50
2024-02-29T08:09:22.658Z,44.17
2024-02-29T08:11:50.630Z,42.17
2024-02-29T08:14:20.690Z,41.15
2024-02-29T08:16:48.959Z,41.85
2024-02-29T08:19:17.806Z,42.75
2024-02-29T08:21:48.913Z,44.53
2024-02-29T08:24:17.753Z,40.55
2024-02-29T08:26:45.989Z,41.83
2024-02-29T08:29:14.884Z,37.55
2024-02-29T08:31:44.326Z,32.10
2024-02-29T08:34:12.490Z,38.67
2024-02-29T08:36:41.041Z,35.20
2024-02-29T08:39:10.504Z,38.45
2024-02-29T08:41:38.529Z,38.55
2024-02-29T08:44:06.514Z,39.13
2024-02-29T08:46:34.554Z,35.70
2024-02-29T08:49:04.051Z,43.40
2024-02-29T08:51:32.859Z,38.42
2024-02-29T08:54:01.253Z,41.97
2024-02-29T08:56:30.667Z,40.28
2024-02-29T08:58:58.614Z,34.72
2024-02-29T09:01:27.412Z,36.80
2024-02-29T09:03:55.598Z,35.53
2024-02-29T09:06:23.648Z,34.45
2024-02-29T09:08:51.683Z,38.58
2024-02-29T09:11:20.010Z,38.30
2024-02-29T09:13:49.476Z,31.15
2024-02-29T09:16:17.824Z,29.73
2024-02-29T09:18:45.970Z,29.48
2024-02-29T09:21:13.877Z,35.05
2024-02-29T09:23:42.034Z,32.83
2024-02-29T09:26:09.982Z,32.88
2024-02-29T09:28:37.905Z,37.80
2024-02-29T09:31:07.388Z,31.73
2024-02-29T09:33:35.584Z,30.85
2024-02-29T09:36:08.563Z,34.03
2024-02-29T09:38:36.863Z,32.78
2024-02-29T09:41:18.444Z,38.10
2024-02-29T09:43:55.934Z,32.20
2024-02-29T09:46:25.377Z,30.83
2024-02-29T09:48:54.315Z,30.20
2024-02-29T09:51:23.830Z,34.20
2024-02-29T09:53:54.306Z,35.88
2024-02-29T09:56:25.137Z,37.60
2024-02-29T09:58:54.718Z,37.08
2024-02-29T10:01:24.404Z,34.78
2024-02-29T10:03:56.744Z,31.50
2024-02-29T10:06:24.817Z,38.50
2024-02-29T10:08:52.922Z,32.60
2024-02-29T10:11:22.080Z,43.85
2024-02-29T10:13:50.363Z,33.25
2024-02-29T10:16:18.621Z,27.35
2024-02-29T10:18:46.725Z,32.13
2024-02-29T10:21:16.848Z,30.55
2024-02-29T10:23:45.468Z,36.17
2024-02-29T10:26:13.424Z,30.27
2024-02-29T10:28:41.505Z,37.88
2024-02-29T10:31:09.964Z,31.05
2024-02-29T10:33:39.966Z,29.27
2024-02-29T10:36:13.068Z,31.08
2024-02-29T10:38:42.592Z,34.10
2024-02-29T10:41:12.772Z,28.75
2024-02-29T10:43:45.057Z,34.33
2024-02-29T10:46:16.179Z,30.48
2024-02-29T10:48:51.022Z,29.10
2024-02-29T10:51:27.288Z,33.30
2024-02-29T10:54:07.716Z,37.20
2024-02-29T10:56:38.028Z,30.20
2024-02-29T10:59:08.777Z,31.05
2024-02-29T11:01:38.706Z,34.05
2024-02-29T11:04:07.604Z,33.53
2024-02-29T11:06:40.119Z,32.63
2024-02-29T11:09:10.535Z,33.67
2024-02-29T11:11:39.460Z,31.63
2024-02-29T11:14:11.889Z,33.10
2024-02-29T11:16:41.169Z,29.17
2024-02-29T11:19:12.764Z,32.58
2024-02-29T11:21:41.051Z,28.48
2024-02-29T11:24:11.782Z,29.20
2024-02-29T11:26:39.819Z,30.60
2024-02-29T11:29:15.859Z,28.77
2024-02-29T11:31:45.413Z,28.70
2024-02-29T11:34:13.545Z,27.83
2024-02-29T11:36:43.028Z,28.35
2024-02-29T11:39:12.414Z,31.65
2024-02-29T11:41:40.394Z,28.92
2024-02-29T11:44:08.543Z,33.55
2024-02-29T11:46:36.583Z,28.00
2024-02-29T11:49:04.619Z,27.33
2024-02-29T11:51:33.015Z,32.50
2024-02-29T11:54:01.243Z,34.17
2024-02-29T11:56:31.797Z,28.80
2024-02-29T11:59:03.313Z,31.33
2024-02-29T12:01:31.910Z,29.23
2024-02-29T12:03:59.942Z,29.88
2024-02-29T12:06:28.060Z,31.00
2024-02-29T12:08:57.038Z,34.85
2024-02-29T12:11:26.349Z,36.03
2024-02-29T12:13:56.428Z,34.40
2024-02-29T12:16:25.735Z,32.15
2024-02-29T12:18:54.025Z,38.47
2024-02-29T12:21:22.090Z,33.20
2024-02-29T12:23:51.897Z,25.92
2024-02-29T12:26:22.561Z,21.25
2024-02-29T12:28:50.656Z,23.38
2024-02-29T12:31:21.020Z,19.00
2024-02-29T12:33:50.218Z,22.33
2024-02-29T12:36:20.068Z,25.00
2024-02-29T12:38:49.578Z,19.92
2024-02-29T12:41:17.986Z,23.02
2024-02-29T12:43:49.524Z,20.10
2024-02-29T12:46:20.417Z,19.27
2024-02-29T12:48:48.700Z,21.33
2024-02-29T12:51:16.741Z,21.08
2024-02-29T12:53:44.733Z,17.55
2024-02-29T12:56:12.901Z,18.48
2024-02-29T12:58:42.266Z,18.65
2024-02-29T13:01:10.977Z,17.23
2024-02-29T13:03:40.385Z,20.63
2024-02-29T13:06:10.472Z,17.15
2024-02-29T13:08:39.173Z,15.65
2024-02-29T13:11:07.272Z,16.52
2024-02-29T13:13:35.223Z,16.98
2024-02-29T13:16:03.328Z,16.90
2024-02-29T13:18:31.313Z,19.40
2024-02-29T13:21:02.451Z,17.52
2024-02-29T13:23:31.999Z,16.58
2024-02-29T13:26:00.515Z,19.20
2024-02-29T13:28:28.831Z,14.20
2024-02-29T13:30:56.820Z,18.55
2024-02-29T13:33:24.829Z,19.23
2024-02-29T13:35:52.772Z,21.38
2024-02-29T13:38:22.086Z,19.23
2024-02-29T13:40:50.213Z,15.45
2024-02-29T13:43:18.158Z,21.50
2024-02-29T13:45:46.192Z,14.48
2024-02-29T13:48:14.649Z,18.35
2024-02-29T13:50:43.612Z,18.15
2024-02-29T13:53:11.945Z,19.20
2024-02-29T13:55:41.314Z,15.50
2024-02-29T13:58:09.364Z,18.50
2024-02-29T14:00:37.432Z,17.88
2024-02-29T14:03:05.790Z,14.60
2024-02-29T14:05:33.795Z,16.33
2024-02-29T14:08:01.717Z,15.45
2024-02-29T14:10:29.763Z,21.13
2024-02-29T14:12:59.782Z,18.45
2024-02-29T14:15:27.797Z,17.48
2024-02-29T14:17:55.797Z,19.92
2024-02-29T14:20:23.776Z,20.48
2024-02-29T14:22:51.984Z,12.55
2024-02-29T14:25:20.068Z,13.65
2024-02-29T14:27:48.099Z,17.33
2024-02-29T14:30:18.313Z,15.73
2024-02-29T14:32:46.408Z,16.33
2024-02-29T14:35:14.580Z,16.48
2024-02-29T14:37:42.738Z,21.00
2024-02-29T14:40:12.764Z,19.20
2024-02-29T14:42:41.030Z,19.98
2024-02-29T14:45:10.057Z,16.58
2024-02-29T14:47:39.677Z,20.80
2024-02-29T14:50:09.156Z,19.30
2024-02-29T14:52:40.537Z,22.58
2024-02-29T14:55:09.307Z,22.73
2024-02-29T14:57:37.644Z,17.83
2024-02-29T15:00:15.375Z,18.27
2024-02-29T15:02:45.084Z,18.90
2024-02-29T15:05:14.057Z,19.60
2024-02-29T15:07:42.956Z,18.08
2024-02-29T15:10:12.667Z,18.80
2024-02-29T15:12:41.782Z,19.58
2024-02-29T15:15:10.991Z,21.23
2024-02-29T15:17:39.486Z,17.02
2024-02-29T15:20:11.310Z,16.75
2024-02-29T15:22:40.747Z,16.13
2024-02-29T15:25:17.023Z,18.23
2024-02-29T15:27:47.562Z,18.00
2024-02-29T15:30:16.528Z,19.88
2024-02-29T15:32:44.579Z,17.42
2024-02-29T15:35:15.032Z,19.90
2024-02-29T15:37:43.381Z,20.80
2024-02-29T15:40:12.605Z,20.42
2024-02-29T15:42:40.935Z,22.23
2024-02-29T15:45:09.639Z,19.95
2024-02-29T15:47:37.798Z,16.85
2024-02-29T15:50:09.098Z,15.88
2024-02-29T15:52:38.603Z,17.80
2024-02-29T15:55:07.868Z,16.60
2024-02-29T15:57:36.054Z,15.63
2024-02-29T16:00:05.528Z,17.48
2024-02-29T16:02:40.515Z,16.58
2024-02-29T16:05:09.119Z,15.05
2024-02-29T16:07:38.433Z,21.10
2024-02-29T16:10:07.359Z,15.10
2024-02-29T16:12:36.050Z,15.98
2024-02-29T16:15:04.495Z,16.50
2024-02-29T16:17:32.524Z,20.90
2024-02-29T16:20:01.145Z,18.17
2024-02-29T16:22:29.618Z,12.02
2024-02-29T16:24:59.000Z,16.73
2024-02-29T16:27:27.115Z,16.85
2024-02-29T16:29:55.218Z,17.30
2024-02-29T16:32:23.161Z,18.00
2024-02-29T16:34:51.081Z,16.77
2024-02-29T16:37:29.285Z,17.60
2024-02-29T16:39:58.780Z,21.40
2024-02-29T16:42:27.417Z,20.10
2024-02-29T16:44:55.992Z,19.27
2024-02-29T16:47:24.098Z,16.52
2024-02-29T16:49:52.315Z,18.15
2024-02-29T16:52:25.787Z,20.23
2024-02-29T16:54:56.219Z,20.33
2024-02-29T16:57:26.160Z,23.25
2024-02-29T16:59:54.403Z,20.83
2024-02-29T17:02:23.671Z,23.67
2024-02-29T17:04:52.617Z,20.25
2024-02-29T17:07:20.696Z,20.98
2024-02-29T17:09:48.993Z,21.48
2024-02-29T17:12:17.082Z,17.80
2024-02-29T17:14:46.485Z,20.98
2024-02-29T17:17:14.844Z,22.23
2024-02-29T17:19:43.380Z,27.92
2024-02-29T17:22:12.608Z,23.55
2024-02-29T17:24:40.600Z,23.35
2024-02-29T17:27:08.990Z,25.20
2024-02-29T17:29:37.341Z,17.85
2024-02-29T17:32:07.523Z,22.52
2024-02-29T17:34:35.670Z,22.40
2024-02-29T17:37:03.657Z,24.13
2024-02-29T17:39:41.303Z,19.65
2024-02-29T17:42:09.754Z,18.58
2024-02-29T17:44:38.390Z,20.42
2024-02-29T17:47:07.867Z,24.33
2024-02-29T17:49:35.930Z,28.20
2024-02-29T17:52:04.239Z,25.63
2024-02-29T17:54:32.306Z,21.55
2024-02-29T17:57:00.778Z,26.70
2024-02-29T17:59:29.010Z,22.55
2024-02-29T18:01:57.163Z,23.92
2024-02-29T18:04:26.850Z,23.58
2024-02-29T18:06:55.014Z,24.10
2024-02-29T18:09:23.223Z,24.60
2024-02-29T18:11:52.859Z,20.67
2024-02-29T18:14:20.919Z,24.52
2024-02-29T18:16:49.026Z,25.05
2024-02-29T18:19:18.760Z,30.38
2024-02-29T18:21:49.435Z,24.80
2024-02-29T18:24:17.646Z,26.38
2024-02-29T18:26:47.398Z,26.80
2024-02-29T18:29:17.110Z,25.58
2024-02-29T18:31:45.392Z,29.70
2024-02-29T18:34:13.421Z,27.63
2024-02-29T18:36:42.644Z,28.92
2024-02-29T18:39:15.091Z,26.60
2024-02-29T18:41:43.658Z,27.00
2024-02-29T18:44:13.323Z,23.95
2024-02-29T18:46:43.176Z,28.17
2024-02-29T18:49:11.740Z,31.35
2024-02-29T18:51:44.551Z,23.90
2024-02-29T18:54:14.329Z,26.17
2024-02-29T18:56:43.844Z,25.73
2024-02-29T18:59:13.939Z,30.50
2024-02-29T19:01:44.823Z,28.98
2024-02-29T19:04:13.239Z,33.88
2024-02-29T19:06:41.261Z,26.40
2024-02-29T19:09:09.692Z,26.30
2024-02-29T19:11:41.048Z,30.27
2024-02-29T19:14:09.126Z,29.33
2024-02-29T19:16:40.328Z,28.67
2024-02-29T19:19:08.362Z,30.52
2024-02-29T19:21:37.670Z,28.35
2024-02-29T19:24:08.055Z,28.20
2024-02-29T19:26:37.145Z,28.27
2024-02-29T19:29:07.163Z,28.63
2024-02-29T19:31:40.223Z,28.67
2024-02-29T19:34:10.368Z,25.93
2024-02-29T19:36:38.371Z,26.80
2024-02-29T19:39:06.372Z,30.60
2024-02-29T19:41:34.414Z,27.45
2024-02-29T19:44:02.413Z,29.20
2024-02-29T19:46:31.866Z,30.13
2024-02-29T19:49:00.516Z,30.88
2024-02-29T19:51:28.620Z,30.55
2024-02-29T19:53:57.207Z,29.73
2024-02-29T19:56:25.209Z,35.05
2024-02-29T19:58:53.373Z,27.35
2024-02-29T20:01:21.405Z,29.00
2024-02-29T20:03:50.856Z,32.70
2024-02-29T20:06:18.855Z,36.10
2024-02-29T20:08:46.794Z,33.60
2024-02-29T20:11:14.945Z,29.02
2024-02-29T20:13:43.171Z,31.50
2024-02-29T20:16:11.156Z,41.05
2024-02-29T20:18:39.265Z,33.72
2024-02-29T20:21:09.045Z,28.77
2024-02-29T20:23:37.158Z,31.38
2024-02-29T20:26:05.371Z,31.85
2024-02-29T20:28:33.425Z,32.47
2024-02-29T20:31:02.484Z,37.85
2024-02-29T20:33:30.483Z,37.03
2024-02-29T20:35:58.495Z,31.85
2024-02-29T20:38:27.824Z,35.35
2024-02-29T20:40:55.832Z,38.03
2024-02-29T20:43:23.936Z,33.35
2024-02-29T20:45:52.524Z,37.13
2024-02-29T20:48:20.611Z,36.13
2024-02-29T20:50:48.577Z,35.00
2024-02-29T20:53:17.191Z,37.28
2024-02-29T20:55:46.622Z,39.60
2024-02-29T20:58:15.835Z,34.17
2024-02-29T21:00:44.217Z,35.63
2024-02-29T21:03:12.352Z,39.40
2024-02-29T21:05:40.378Z,36.65
2024-02-29T21:08:08.641Z,38.80
2024-02-29T21:10:37.027Z,40.40
2024-02-29T21:13:06.780Z,40.55
2024-02-29T21:15:34.820Z,35.90
2024-02-29T21:18:04.031Z,38.35
2024-02-29T21:20:32.145Z,39.53
2024-02-29T21:23:00.064Z,35.60
2024-02-29T21:25:28.257Z,38.55
2024-02-29T21:27:56.466Z,41.92
2024-02-29T21:30:25.794Z,40.17
2024-02-29T21:32:53.958Z,40.90
2024-02-29T21:35:22.580Z,40.83
2024-02-29T21:37:50.866Z,41.33
2024-02-29T21:40:19.142Z,42.60
2024-02-29T21:42:48.369Z,41.42
2024-02-29T21:45:16.946Z,47.00
2024-02-29T21:47:46.310Z,39.85
2024-02-29T21:50:14.781Z,39.03
2024-02-29T21:52:42.844Z,44.78
2024-02-29T21:55:11.862Z,41.92
2024-02-29T21:57:39.888Z,41.00
2024-02-29T22:00:09.977Z,44.13
2024-02-29T22:02:42.040Z,48.47
2024-02-29T22:05:13.366Z,39.30
2024-02-29T22:07:42.497Z,41.25
2024-02-29T22:10:11.282Z,42.28
2024-02-29T22:12:39.639Z,39.72
2024-02-29T22:15:09.751Z,44.05
2024-02-29T22:17:37.914Z,45.42
2024-02-29T22:20:09.669Z,42.88
2024-02-29T22:22:39.052Z,44.72
2024-02-29T22:25:07.846Z,46.25
2024-02-29T22:27:35.752Z,44.45
2024-02-29T22:30:04.322Z,47.25
2024-02-29T22:32:32.411Z,40.53
2024-02-29T22:35:00.502Z,42.53
2024-02-29T22:37:28.581Z,41.13
2024-02-29T22:39:57.972Z,39.80
2024-02-29T22:42:26.231Z,42.05
2024-02-29T22:44:53.527Z,41.92
2024-02-29T22:47:21.633Z,46.42
2024-02-29T22:49:49.631Z,40.05
2024-02-29T22:52:17.620Z,44.15
2024-02-29T22:54:46.903Z,44.20
2024-02-29T22:57:16.283Z,45.42
2024-02-29T22:59:44.246Z,44.42
2024-02-29T23:02:12.273Z,41.97
2024-02-29T23:04:40.363Z,39.92
2024-02-29T23:07:08.547Z,45.65
2024-02-29T23:09:37.424Z,40.38
2024-02-29T23:12:05.996Z,42.63
2024-02-29T23:14:35.345Z,39.95
2024-02-29T23:17:03.367Z,45.03
2024-02-29T23:19:31.999Z,42.55
2024-02-29T23:22:00.079Z,39.58
2024-02-29T23:24:28.044Z,40.63
2024-02-29T23:26:55.987Z,40.42
2024-02-29T23:29:23.967Z,38.40
2024-02-29T23:31:53.376Z,42.65
2024-02-29T23:34:22.372Z,42.97
2024-02-29T23:36:51.750Z,43.85
2024-02-29T23:39:20.252Z,41.75
2024-02-29T23:41:48.497Z,44.65
2024-02-29T23:44:16.425Z,44.90
2024-02-29T23:46:44.594Z,46.55
2024-02-29T23:49:13.997Z,43.63
2024-02-29T23:51:43.176Z,43.50
2024-02-29T23:54:11.501Z,45.50
2024-02-29T23:56:39.512Z,43.28
2024-02-29T23:59:07.572Z,47.28
